createdAt,value
2019-06-10T00:00:22.632Z,60.00
2019-06-10T00:02:50.812Z,60.32
2019-06-10T00:05:17.637Z,60.64
2019-06-10T00:07:44.512Z,60.66
2019-06-10T00:10:13.398Z,60.46
2019-06-10T00:12:41.956Z,60.24
2019-06-10T00:15:10.825Z,60.54
2019-06-10T00:17:52.394Z,60.52
2019-06-10T00:20:08.205Z,61.29
2019-06-10T00:22:35.273Z,60.70
2019-06-10T00:25:05.807Z,60.87
2019-06-10T00:27:33.343Z,60.42
2019-06-10T00:30:02.591Z,59.96
2019-06-10T00:32:32.020Z,60.50
2019-06-10T00:34:59.411Z,60.85
2019-06-10T00:37:27.119Z,61.51
2019-06-10T00:39:54.122Z,61.86
2019-06-10T00:42:21.599Z,61.63
2019-06-10T00:44:50.802Z,61.58
2019-06-10T00:47:17.049Z,61.80
2019-06-10T00:49:43.664Z,62.31
2019-06-10T00:52:12.159Z,62.21
2019-06-10T00:54:41.578Z,61.21
2019-06-10T00:57:07.741Z,61.50
2019-06-10T00:59:34.455Z,62.35
2019-06-10T01:02:02.960Z,63.86
2019-06-10T01:04:31.884Z,62.96
2019-06-10T01:07:00.627Z,61.98
2019-06-10T01:09:27.021Z,60.86
2019-06-10T01:11:53.933Z,61.47
2019-06-10T01:14:21.520Z,62.57
2019-06-10T01:16:50.638Z,62.28
2019-06-10T01:19:17.729Z,62.29
2019-06-10T01:21:44.364Z,61.74
2019-06-10T01:24:12.101Z,61.61
2019-06-10T01:26:41.189Z,61.61
2019-06-10T01:29:08.242Z,61.77
2019-06-10T01:31:34.856Z,60.77
2019-06-10T01:34:05.491Z,60.28
2019-06-10T01:36:32.246Z,61.42
2019-06-10T01:39:01.401Z,62.42
2019-06-10T01:41:27.583Z,63.04
2019-06-10T01:43:54.208Z,62.48
2019-06-10T01:46:21.267Z,62.52
2019-06-10T01:48:48.636Z,62.02
2019-06-10T01:51:17.436Z,62.24
2019-06-10T01:53:46.028Z,62.92
2019-06-10T01:56:15.461Z,61.93
2019-06-10T01:58:41.623Z,61.51
2019-06-10T02:01:13.431Z,61.85
2019-06-10T02:03:41.379Z,61.89
2019-06-10T02:06:08.785Z,61.25
2019-06-10T02:08:35.741Z,61.64
2019-06-10T02:11:02.593Z,61.55
2019-06-10T02:14:25.763Z,63.15
2019-06-10T02:16:53.477Z,62.69
2019-06-10T02:19:22.783Z,62.67
2019-06-10T02:21:50.942Z,62.92
2019-06-10T02:24:17.957Z,62.74
2019-06-10T02:26:45.968Z,62.70
2019-06-10T02:29:14.300Z,63.00
2019-06-10T02:31:43.296Z,62.17
2019-06-10T02:34:13.358Z,61.35
2019-06-10T02:36:38.708Z,61.80
2019-06-10T02:39:07.488Z,62.19
2019-06-10T02:41:36.612Z,61.83
2019-06-10T02:44:05.791Z,61.62
2019-06-10T02:46:35.971Z,61.72
2019-06-10T02:49:17.599Z,62.27
2019-06-10T02:51:31.444Z,63.15
2019-06-10T02:53:58.546Z,63.54
2019-06-10T02:56:28.413Z,62.54
2019-06-10T02:58:54.043Z,62.65
2019-06-10T03:01:23.331Z,63.03
2019-06-10T03:03:53.326Z,64.04
2019-06-10T03:06:21.324Z,63.63
2019-06-10T03:08:46.993Z,62.72
2019-06-10T03:11:14.311Z,62.69
2019-06-10T03:13:42.631Z,62.53
2019-06-10T03:16:10.304Z,63.54
2019-06-10T03:18:36.991Z,63.52
2019-06-10T03:21:03.703Z,62.75
2019-06-10T03:23:32.110Z,64.10
2019-06-10T03:26:00.225Z,63.09
2019-06-10T03:28:27.806Z,62.72
2019-06-10T03:30:58.963Z,63.84
2019-06-10T03:33:31.522Z,63.69
2019-06-10T03:35:52.916Z,63.06
2019-06-10T03:38:23.096Z,62.65
2019-06-10T03:40:49.355Z,63.27
2019-06-10T03:43:16.703Z,62.79
2019-06-10T03:45:45.293Z,62.52
2019-06-10T03:48:13.126Z,63.08
2019-06-10T03:50:43.149Z,62.89
2019-06-10T03:53:12.655Z,62.90
2019-06-10T03:55:38.692Z,62.71
2019-06-10T03:58:05.356Z,61.70
2019-06-10T04:00:32.707Z,61.58
2019-06-10T04:02:59.838Z,62.03
2019-06-10T04:05:27.399Z,61.75
2019-06-10T04:07:55.073Z,62.38
2019-06-10T04:10:24.408Z,62.80
2019-06-10T04:12:52.368Z,61.43
2019-06-10T04:15:19.746Z,62.10
2019-06-10T04:17:46.436Z,62.81
2019-06-10T04:20:15.582Z,58.83
2019-06-10T04:22:44.489Z,59.59
2019-06-10T04:25:12.215Z,62.47
2019-06-10T04:27:39.133Z,62.05
2019-06-10T04:30:06.410Z,58.17
2019-06-10T04:32:33.122Z,57.47
2019-06-10T04:35:02.094Z,57.59
2019-06-10T04:37:29.483Z,58.64
2019-06-10T04:39:57.585Z,58.87
2019-06-10T04:42:26.100Z,59.72
2019-06-10T04:44:53.309Z,59.86
2019-06-10T04:47:21.314Z,55.98
2019-06-10T04:49:48.629Z,55.48
2019-06-10T04:52:15.181Z,55.12
2019-06-10T04:54:42.189Z,53.23
2019-06-10T04:57:09.034Z,56.06
2019-06-10T04:59:35.646Z,54.18
2019-06-10T05:02:05.520Z,54.82
2019-06-10T05:04:32.890Z,52.34
2019-06-10T05:07:02.129Z,52.88
2019-06-10T05:09:30.583Z,50.59
2019-06-10T05:12:02.832Z,51.35
2019-06-10T05:14:30.366Z,51.00
2019-06-10T05:16:58.431Z,50.00
2019-06-10T05:19:26.433Z,52.07
2019-06-10T05:21:53.870Z,52.41
2019-06-10T05:24:24.671Z,52.29
2019-06-10T05:26:49.119Z,51.73
2019-06-10T05:29:15.942Z,54.22
2019-06-10T05:31:43.621Z,52.19
2019-06-10T05:34:13.044Z,52.24
2019-06-10T05:36:39.485Z,52.04
2019-06-10T05:39:06.435Z,48.91
2019-06-10T05:41:35.103Z,51.43
2019-06-10T05:44:02.701Z,48.39
2019-06-10T05:46:30.289Z,48.55
2019-06-10T05:48:58.319Z,48.22
2019-06-10T05:51:26.402Z,47.24
2019-06-10T05:53:53.402Z,46.25
2019-06-10T05:56:21.935Z,45.94
2019-06-10T05:58:48.468Z,47.31
2019-06-10T06:01:15.128Z,47.30
2019-06-10T06:03:43.845Z,45.37
2019-06-10T06:06:12.489Z,47.79
2019-06-10T06:08:39.437Z,46.31
2019-06-10T06:11:06.314Z,44.33
2019-06-10T06:13:35.915Z,42.84
2019-06-10T06:16:03.380Z,45.00
2019-06-10T06:18:33.196Z,49.40
2019-06-10T06:20:59.156Z,46.83
2019-06-10T06:23:26.899Z,42.99
2019-06-10T06:25:54.109Z,44.38
2019-06-10T06:28:22.906Z,41.88
2019-06-10T06:30:49.647Z,44.39
2019-06-10T06:33:16.366Z,42.95
2019-06-10T06:35:46.358Z,41.37
2019-06-10T06:38:12.983Z,41.21
2019-06-10T06:40:39.888Z,40.07
2019-06-10T06:43:06.664Z,40.35
2019-06-10T06:45:35.862Z,40.87
2019-06-10T06:48:03.017Z,39.52
2019-06-10T06:50:30.843Z,39.55
2019-06-10T06:53:19.742Z,39.74
2019-06-10T06:55:28.422Z,40.70
2019-06-10T06:57:55.544Z,41.71
2019-06-10T07:00:43.150Z,40.25
2019-06-10T07:02:56.400Z,40.01
2019-06-10T07:05:23.018Z,40.18
2019-06-10T07:07:52.732Z,39.73
2019-06-10T07:10:22.714Z,37.98
2019-06-10T07:12:52.338Z,39.31
2019-06-10T07:15:24.989Z,38.72
2019-06-10T07:17:52.636Z,38.90
2019-06-10T07:20:23.025Z,37.92
2019-06-10T07:22:49.879Z,38.51
2019-06-10T07:25:16.582Z,36.74
2019-06-10T07:27:46.460Z,36.60
2019-06-10T07:30:15.034Z,36.89
2019-06-10T07:32:46.850Z,36.49
2019-06-10T07:35:12.839Z,35.72
2019-06-10T07:37:39.441Z,35.69
2019-06-10T07:40:07.364Z,37.11
2019-06-10T07:42:34.889Z,36.32
2019-06-10T07:45:05.810Z,36.79
2019-06-10T07:47:33.837Z,35.15
2019-06-10T07:50:03.022Z,37.07
2019-06-10T07:52:29.699Z,35.68
2019-06-10T07:54:56.279Z,36.63
2019-06-10T07:57:22.935Z,35.49
2019-06-10T07:59:52.095Z,35.84
2019-06-10T08:02:18.125Z,34.86
2019-06-10T08:04:46.013Z,35.54
2019-06-10T08:07:13.255Z,34.48
2019-06-10T08:09:41.681Z,33.72
2019-06-10T08:12:08.743Z,33.59
2019-06-10T08:14:35.463Z,34.72
2019-06-10T08:17:03.107Z,35.98
2019-06-10T08:19:35.848Z,35.96
2019-06-10T08:21:58.690Z,35.98
2019-06-10T08:24:25.409Z,36.76
2019-06-10T08:26:53.031Z,35.92
2019-06-10T08:29:19.906Z,36.90
2019-06-10T08:31:48.460Z,38.03
2019-06-10T08:34:15.302Z,37.96
2019-06-10T08:36:46.108Z,37.71
2019-06-10T08:39:15.078Z,37.23
2019-06-10T08:41:40.597Z,37.50
2019-06-10T08:45:04.371Z,37.89
2019-06-10T08:47:32.622Z,38.50
2019-06-10T08:49:59.565Z,38.71
2019-06-10T08:52:26.636Z,38.05
2019-06-10T08:54:54.428Z,39.52
2019-06-10T08:57:23.895Z,39.54
2019-06-10T08:59:53.166Z,38.58
2019-06-10T09:02:19.032Z,39.67
2019-06-10T09:04:48.805Z,38.48
2019-06-10T09:07:14.551Z,38.62
2019-06-10T09:09:43.772Z,38.96
2019-06-10T09:12:27.722Z,39.23
2019-06-10T09:14:38.697Z,38.12
2019-06-10T09:17:05.492Z,38.73
2019-06-10T09:19:33.177Z,38.74
2019-06-10T09:22:03.228Z,40.01
2019-06-10T09:24:29.329Z,39.28
2019-06-10T09:26:56.101Z,39.61
2019-06-10T09:29:22.761Z,39.67
2019-06-10T09:31:52.530Z,38.79
2019-06-10T09:34:18.191Z,39.20
2019-06-10T09:36:47.978Z,39.50
2019-06-10T09:39:13.389Z,39.27
2019-06-10T09:41:45.221Z,41.08
2019-06-10T09:44:09.252Z,41.61
2019-06-10T09:46:38.379Z,41.67
2019-06-10T09:49:05.343Z,41.08
2019-06-10T09:51:32.593Z,39.86
2019-06-10T09:54:03.607Z,40.97
2019-06-10T09:56:28.281Z,39.90
2019-06-10T09:58:57.059Z,40.92
2019-06-10T10:01:24.688Z,39.59
2019-06-10T10:03:59.362Z,39.77
2019-06-10T10:06:23.557Z,40.61
2019-06-10T10:08:56.262Z,40.67
2019-06-10T10:11:18.761Z,41.15
2019-06-10T10:13:48.041Z,41.06
2019-06-10T10:16:14.623Z,40.87
2019-06-10T10:18:45.866Z,41.34
2019-06-10T10:21:10.107Z,40.65
2019-06-10T10:23:51.351Z,40.67
2019-06-10T10:26:05.895Z,40.03
2019-06-10T10:28:33.518Z,39.91
2019-06-10T10:31:03.539Z,39.32
2019-06-10T10:33:30.836Z,39.88
2019-06-10T10:35:57.897Z,39.45
2019-06-10T10:38:24.753Z,38.95
2019-06-10T10:40:56.436Z,39.41
2019-06-10T10:43:28.994Z,39.15
2019-06-10T10:45:51.799Z,39.82
2019-06-10T10:48:18.648Z,39.61
2019-06-10T10:50:47.401Z,39.17
2019-06-10T10:53:14.591Z,38.79
2019-06-10T10:55:42.526Z,39.17
2019-06-10T10:58:12.722Z,38.59
2019-06-10T11:00:45.400Z,39.95
2019-06-10T11:03:13.352Z,39.51
2019-06-10T11:05:40.910Z,40.55
2019-06-10T11:08:08.208Z,40.42
2019-06-10T11:10:35.406Z,40.19
2019-06-10T11:13:06.584Z,40.15
2019-06-10T11:15:33.924Z,40.14
2019-06-10T11:18:03.825Z,39.37
2019-06-10T11:20:33.499Z,40.31
2019-06-10T11:22:59.827Z,40.34
2019-06-10T11:25:26.391Z,40.31
2019-06-10T11:27:55.717Z,40.01
2019-06-10T11:30:23.505Z,39.57
2019-06-10T11:32:53.545Z,40.02
2019-06-10T11:35:19.742Z,38.64
2019-06-10T11:37:46.824Z,39.86
2019-06-10T11:40:14.171Z,38.57
2019-06-10T11:42:43.529Z,39.69
2019-06-10T11:45:11.643Z,39.06
2019-06-10T11:47:38.624Z,39.28
2019-06-10T11:50:06.245Z,39.65
2019-06-10T11:52:33.611Z,39.15
2019-06-10T11:55:11.903Z,38.85
2019-06-10T11:57:29.072Z,38.53
2019-06-10T11:59:56.579Z,38.88
2019-06-10T12:02:24.386Z,38.94
2019-06-10T12:04:53.368Z,38.75
2019-06-10T12:07:22.233Z,39.35
2019-06-10T12:09:48.963Z,38.63
2019-06-10T12:12:15.783Z,38.98
2019-06-10T12:14:43.149Z,38.56
2019-06-10T12:17:24.693Z,38.70
2019-06-10T12:19:38.890Z,38.76
2019-06-10T12:22:07.634Z,38.82
2019-06-10T12:24:34.430Z,39.23
2019-06-10T12:27:04.811Z,38.88
2019-06-10T12:29:30.053Z,38.76
2019-06-10T12:32:01.220Z,39.02
2019-06-10T12:34:25.322Z,38.27
2019-06-10T12:36:56.227Z,38.23
2019-06-10T12:39:22.878Z,36.92
2019-06-10T12:41:49.085Z,37.64
2019-06-10T12:44:15.939Z,37.52
2019-06-10T12:46:43.330Z,38.18
2019-06-10T12:49:12.839Z,38.11
2019-06-10T12:51:39.213Z,38.92
2019-06-10T12:54:06.610Z,38.63
2019-06-10T12:56:33.796Z,38.55
2019-06-10T12:59:02.828Z,38.15
2019-06-10T13:01:29.468Z,38.24
2019-06-10T13:03:57.541Z,39.31
2019-06-10T13:06:26.435Z,38.04
2019-06-10T13:08:56.307Z,39.34
2019-06-10T13:11:24.505Z,36.91
2019-06-10T13:13:53.050Z,35.88
2019-06-10T13:16:19.966Z,36.75
2019-06-10T13:18:46.628Z,37.82
2019-06-10T13:21:17.413Z,37.09
2019-06-10T13:23:43.225Z,36.15
2019-06-10T13:26:15.264Z,35.97
2019-06-10T13:28:39.235Z,35.29
2019-06-10T13:31:08.404Z,35.82
2019-06-10T13:33:35.944Z,35.63
2019-06-10T13:36:06.394Z,36.07
2019-06-10T13:38:33.200Z,35.05
2019-06-10T13:41:01.735Z,34.66
2019-06-10T13:43:28.900Z,34.49
2019-06-10T13:45:55.731Z,35.88
2019-06-10T13:48:23.310Z,34.44
2019-06-10T13:50:52.858Z,34.11
2019-06-10T13:53:19.984Z,34.48
2019-06-10T13:55:46.745Z,35.30
2019-06-10T13:58:14.712Z,34.99
2019-06-10T14:00:46.260Z,35.69
2019-06-10T14:03:15.851Z,35.33
2019-06-10T14:05:38.908Z,35.08
2019-06-10T14:08:09.361Z,35.59
2019-06-10T14:10:35.328Z,34.84
2019-06-10T14:13:03.988Z,34.94
2019-06-10T14:15:32.910Z,34.96
2019-06-10T14:18:01.115Z,35.47
2019-06-10T14:20:28.535Z,35.14
2019-06-10T14:22:55.206Z,33.81
2019-06-10T14:25:23.254Z,34.33
2019-06-10T14:27:53.176Z,35.49
2019-06-10T14:30:20.008Z,35.06
2019-06-10T14:32:46.601Z,33.74
2019-06-10T14:35:17.233Z,34.01
2019-06-10T14:37:43.139Z,34.24
2019-06-10T14:40:18.528Z,33.46
2019-06-10T14:42:39.439Z,33.86
2019-06-10T14:45:08.690Z,33.94
2019-06-10T14:47:36.067Z,34.78
2019-06-10T14:50:10.893Z,35.20
2019-06-10T14:52:38.250Z,34.83
2019-06-10T14:55:07.200Z,35.38
2019-06-10T14:57:34.057Z,34.27
2019-06-10T15:00:02.936Z,33.73
2019-06-10T15:02:29.991Z,33.84
2019-06-10T15:04:59.367Z,33.86
2019-06-10T15:07:26.018Z,33.28
2019-06-10T15:09:52.765Z,32.91
2019-06-10T15:12:20.638Z,33.05
2019-06-10T15:14:48.173Z,32.94
2019-06-10T15:17:16.673Z,33.10
2019-06-10T15:19:43.636Z,32.80
2019-06-10T15:22:12.645Z,33.32
2019-06-10T15:24:39.189Z,33.15
2019-06-10T15:27:13.130Z,34.29
2019-06-10T15:29:34.813Z,34.66
2019-06-10T15:32:10.500Z,34.20
2019-06-10T15:34:32.552Z,33.59
2019-06-10T15:36:59.017Z,34.42
2019-06-10T15:39:25.695Z,34.62
2019-06-10T15:41:52.420Z,34.76
2019-06-10T15:44:37.245Z,35.17
2019-06-10T15:46:52.459Z,35.22
2019-06-10T15:49:21.814Z,35.19
2019-06-10T15:51:48.521Z,35.48
2019-06-10T15:54:17.342Z,35.39
2019-06-10T15:56:49.908Z,35.34
2019-06-10T15:59:14.919Z,35.20
2019-06-10T16:01:42.572Z,35.49
2019-06-10T16:04:09.211Z,35.99
2019-06-10T16:06:35.888Z,37.04
2019-06-10T16:09:06.692Z,36.05
2019-06-10T16:11:35.196Z,35.69
2019-06-10T16:14:02.880Z,36.12
2019-06-10T16:16:32.421Z,36.27
2019-06-10T16:18:58.962Z,36.70
2019-06-10T16:21:25.775Z,36.64
2019-06-10T16:23:53.378Z,36.64
2019-06-10T16:26:20.295Z,36.57
2019-06-10T16:28:47.193Z,36.71
2019-06-10T16:31:15.278Z,36.43
2019-06-10T16:33:49.325Z,37.00
2019-06-10T16:36:12.242Z,37.29
2019-06-10T16:38:39.162Z,37.11
2019-06-10T16:41:05.944Z,37.08
2019-06-10T16:43:33.693Z,37.12
2019-06-10T16:46:03.066Z,37.56
2019-06-10T16:49:26.984Z,36.60
2019-06-10T16:51:53.632Z,37.53
2019-06-10T16:54:23.591Z,38.45
2019-06-10T16:56:49.310Z,37.89
2019-06-10T16:59:16.065Z,38.46
2019-06-10T17:01:43.022Z,38.99
2019-06-10T17:04:12.281Z,38.57
2019-06-10T17:06:38.272Z,39.31
2019-06-10T17:09:07.253Z,39.82
2019-06-10T17:11:35.179Z,39.93
2019-06-10T17:14:03.316Z,40.01
2019-06-10T17:16:30.074Z,39.56
2019-06-10T17:18:56.683Z,40.05
2019-06-10T17:21:27.983Z,40.56
2019-06-10T17:23:52.534Z,40.21
2019-06-10T17:26:23.738Z,41.13
2019-06-10T17:28:48.426Z,41.57
2019-06-10T17:31:15.846Z,42.03
2019-06-10T17:33:42.870Z,41.75
2019-06-10T17:36:12.459Z,42.24
2019-06-10T17:38:38.502Z,42.58
2019-06-10T17:41:05.414Z,42.78
2019-06-10T17:43:34.200Z,42.71
2019-06-10T17:46:03.130Z,43.03
2019-06-10T17:48:31.389Z,42.86
2019-06-10T17:50:59.188Z,43.38
2019-06-10T17:53:26.184Z,43.67
2019-06-10T17:55:53.207Z,42.98
2019-06-10T17:58:33.498Z,43.55
2019-06-10T18:00:48.948Z,44.33
2019-06-10T18:03:15.733Z,44.23
2019-06-10T18:05:42.682Z,45.10
2019-06-10T18:08:09.566Z,44.27
2019-06-10T18:10:36.361Z,45.04
2019-06-10T18:13:42.907Z,45.49
2019-06-10T18:16:09.452Z,45.45
2019-06-10T18:18:37.288Z,45.66
2019-06-10T18:21:04.657Z,45.78
2019-06-10T18:23:31.383Z,45.83
2019-06-10T18:25:58.053Z,46.46
2019-06-10T18:28:24.996Z,46.62
2019-06-10T18:30:53.286Z,47.17
2019-06-10T18:33:23.107Z,46.46
2019-06-10T18:35:49.270Z,46.48
2019-06-10T18:39:15.342Z,46.91
2019-06-10T18:41:43.870Z,46.70
2019-06-10T18:44:22.006Z,47.71
2019-06-10T18:46:43.387Z,47.99
2019-06-10T18:49:13.291Z,47.80
2019-06-10T18:51:39.937Z,48.38
2019-06-10T18:54:09.915Z,48.26
2019-06-10T18:56:37.434Z,49.27
2019-06-10T18:59:16.732Z,49.97
2019-06-10T19:01:36.834Z,49.67
2019-06-10T19:04:05.883Z,49.63
2019-06-10T19:06:36.524Z,49.69
2019-06-10T19:09:12.607Z,49.55
2019-06-10T19:11:40.070Z,49.70
2019-06-10T19:14:08.972Z,49.70
2019-06-10T19:16:42.953Z,50.70
2019-06-10T19:19:12.505Z,49.96
2019-06-10T19:21:44.393Z,50.31
2019-06-10T19:24:12.982Z,50.99
2019-06-10T19:26:42.650Z,50.44
2019-06-10T19:29:09.902Z,50.61
2019-06-10T19:31:39.774Z,50.77
2019-06-10T19:35:03.142Z,50.69
2019-06-10T19:37:34.364Z,51.09
2019-06-10T19:40:04.342Z,51.42
2019-06-10T19:42:34.442Z,51.32
2019-06-10T19:46:00.479Z,51.53
2019-06-10T19:48:28.455Z,51.59
2019-06-10T19:50:57.133Z,52.04
2019-06-10T19:53:26.837Z,52.10
2019-06-10T19:55:53.514Z,52.17
2019-06-10T19:58:22.996Z,52.20
2019-06-10T20:00:54.037Z,52.91
2019-06-10T20:03:19.252Z,53.07
2019-06-10T20:05:46.988Z,53.32
2019-06-10T20:08:15.574Z,54.39
2019-06-10T20:10:42.553Z,54.50
2019-06-10T20:13:10.900Z,54.16
2019-06-10T20:15:46.669Z,54.07
2019-06-10T20:18:14.063Z,54.19
2019-06-10T20:20:45.643Z,53.93
2019-06-10T20:23:16.400Z,54.51
2019-06-10T20:25:46.753Z,54.74
2019-06-10T20:28:14.268Z,54.84
2019-06-10T20:30:43.851Z,55.42
2019-06-10T20:33:13.486Z,54.97
2019-06-10T20:35:42.085Z,56.05
2019-06-10T20:38:08.437Z,56.47
2019-06-10T20:40:35.692Z,56.36
2019-06-10T20:43:03.326Z,56.51
2019-06-10T20:45:32.915Z,56.28
2019-06-10T20:47:58.963Z,56.36
2019-06-10T20:50:25.899Z,56.71
2019-06-10T20:52:52.624Z,57.52
2019-06-10T20:55:19.476Z,58.33
2019-06-10T20:57:56.604Z,57.54
2019-06-10T21:00:23.703Z,57.89
2019-06-10T21:02:51.000Z,57.96
2019-06-10T21:05:18.117Z,58.69
2019-06-10T21:07:46.884Z,57.71
2019-06-10T21:10:22.147Z,57.86
2019-06-10T21:12:49.780Z,57.76
2019-06-10T21:15:18.616Z,57.79
2019-06-10T21:17:46.350Z,58.22
2019-06-10T21:20:14.318Z,58.23
2019-06-10T21:22:42.993Z,58.48
2019-06-10T21:25:09.754Z,58.71
2019-06-10T21:27:36.465Z,58.36
2019-06-10T21:30:11.340Z,58.11
2019-06-10T21:32:34.842Z,58.19
2019-06-10T21:35:04.454Z,58.89
2019-06-10T21:37:32.009Z,58.17
2019-06-10T21:39:58.946Z,58.62
2019-06-10T21:42:25.563Z,58.25
2019-06-10T21:44:52.446Z,58.59
2019-06-10T21:47:19.322Z,59.44
2019-06-10T21:49:46.963Z,59.05
2019-06-10T21:52:14.297Z,58.97
2019-06-10T21:54:42.591Z,59.88
2019-06-10T21:57:09.828Z,59.80
2019-06-10T21:59:36.609Z,59.40
2019-06-10T22:02:03.723Z,59.78
2019-06-10T22:04:32.511Z,59.94
2019-06-10T22:06:58.839Z,60.20
2019-06-10T22:09:25.491Z,59.54
2019-06-10T22:11:52.944Z,59.77
2019-06-10T22:14:22.445Z,60.40
2019-06-10T22:16:50.917Z,59.55
2019-06-10T22:19:18.045Z,60.27
2019-06-10T22:21:44.787Z,60.73
2019-06-10T22:24:12.546Z,60.42
2019-06-10T22:26:39.617Z,60.40
2019-06-10T22:29:06.292Z,60.78
2019-06-10T22:31:32.884Z,59.88
2019-06-10T22:34:00.691Z,60.10
2019-06-10T22:36:28.222Z,60.12
2019-06-10T22:38:57.740Z,61.09
2019-06-10T22:41:23.576Z,60.65
2019-06-10T22:43:51.436Z,61.39
2019-06-10T22:46:18.772Z,61.16
2019-06-10T22:48:46.876Z,60.89
2019-06-10T22:51:14.061Z,61.35
2019-06-10T22:53:42.516Z,61.31
2019-06-10T22:56:09.464Z,61.75
2019-06-10T22:58:36.107Z,61.88
2019-06-10T23:01:04.267Z,62.07
2019-06-10T23:03:31.472Z,61.54
2019-06-10T23:05:59.466Z,61.75
2019-06-10T23:08:26.208Z,62.03
2019-06-10T23:10:53.778Z,62.02
2019-06-10T23:13:23.131Z,62.03
2019-06-10T23:15:53.500Z,61.86
2019-06-10T23:18:19.665Z,61.68
2019-06-10T23:20:46.415Z,62.00
2019-06-10T23:23:13.172Z,62.25
2019-06-10T23:25:39.836Z,62.12
2019-06-10T23:28:06.452Z,62.50
2019-06-10T23:30:33.135Z,62.24
2019-06-10T23:33:00.841Z,62.88
2019-06-10T23:35:27.691Z,63.24
2019-06-10T23:37:56.894Z,63.65
2019-06-10T23:40:23.379Z,63.67
2019-06-10T23:42:50.824Z,63.78
2019-06-10T23:45:17.638Z,63.74
2019-06-10T23:47:44.357Z,63.87
2019-06-10T23:50:12.924Z,63.76
2019-06-10T23:52:40.074Z,63.98
2019-06-10T23:55:07.727Z,63.22
2019-06-10T23:57:34.337Z,63.53
